createdAt,value
2022-09-24T00:00:12.830Z,41.0900
2022-09-24T00:01:16.355Z,41.0200
2022-09-24T00:02:17.182Z,40.9280
2022-09-24T00:03:19.479Z,41.0000
2022-09-24T00:04:21.586Z,40.9630
2022-09-24T00:05:23.804Z,41.0750
2022-09-24T00:06:26.066Z,41.0200
2022-09-24T00:07:28.271Z,41.0090
2022-09-24T00:08:30.588Z,40.9750
2022-09-24T00:09:32.864Z,40.9210
2022-09-24T00:10:33.012Z,40.9310
2022-09-24T00:11:35.331Z,41.0520
2022-09-24T00:12:37.560Z,41.0790
2022-09-24T00:13:39.844Z,41.0650
2022-09-24T00:14:42.072Z,41.0930
2022-09-24T00:16:42.424Z,41.1400
2022-09-24T00:17:44.520Z,41.0990
2022-09-24T00:18:46.797Z,41.1770
2022-09-24T00:19:49.063Z,41.0830
2022-09-24T00:20:51.345Z,41.1280
2022-09-24T00:21:53.649Z,41.1100
2022-09-24T00:22:55.863Z,41.0790
2022-09-24T00:23:55.978Z,40.9970
2022-09-24T00:24:58.217Z,40.9440
2022-09-24T00:26:00.492Z,40.9660
2022-09-24T00:27:02.815Z,40.9970
2022-09-24T00:28:05.051Z,40.9660
2022-09-24T00:29:07.343Z,40.9440
2022-09-24T00:30:09.635Z,40.9190
2022-09-24T00:31:09.832Z,40.9910
2022-09-24T00:32:12.019Z,40.9630
2022-09-24T00:33:14.221Z,40.9110
2022-09-24T00:34:16.500Z,40.9830
2022-09-24T00:35:18.779Z,40.9250
2022-09-24T00:36:21.042Z,40.8770
2022-09-24T00:37:23.376Z,41.0280
2022-09-24T00:38:25.657Z,40.9500
2022-09-24T00:39:27.984Z,40.9610
2022-09-24T00:40:28.169Z,40.8840
2022-09-24T00:41:30.358Z,40.9560
2022-09-24T00:42:32.564Z,40.8410
2022-09-24T00:43:34.824Z,40.8230
2022-09-24T00:44:37.061Z,40.8620
2022-09-24T00:45:39.285Z,41.0270
2022-09-24T00:46:41.629Z,41.0320
2022-09-24T00:47:43.806Z,41.0320
2022-09-24T00:48:46.016Z,41.0320
2022-09-24T00:49:48.211Z,41.0010
2022-09-24T00:50:48.241Z,40.9290
2022-09-24T00:51:50.422Z,40.9660
2022-09-24T00:52:52.706Z,40.9600
2022-09-24T00:53:54.906Z,41.0000
2022-09-24T00:54:57.165Z,41.0890
2022-09-24T00:55:59.370Z,41.0230
2022-09-24T00:57:01.587Z,40.9680
2022-09-24T00:58:03.803Z,40.8900
2022-09-24T00:59:05.996Z,41.0000
2022-09-24T01:00:08.241Z,40.9880
2022-09-24T01:01:10.656Z,40.9210
2022-09-24T01:02:12.884Z,40.8670
2022-09-24T01:03:14.949Z,40.9350
2022-09-24T01:04:14.968Z,40.9660
2022-09-24T01:05:17.198Z,40.9880
2022-09-24T01:06:19.368Z,40.8910
2022-09-24T01:07:21.599Z,40.8030
2022-09-24T01:08:23.835Z,40.8470
2022-09-24T01:09:26.020Z,40.8420
2022-09-24T01:10:28.327Z,40.8610
2022-09-24T01:11:30.602Z,40.8550
2022-09-24T01:12:32.909Z,40.8850
2022-09-24T01:13:36.582Z,40.8980
2022-09-24T01:14:35.380Z,40.9240
2022-09-24T01:15:37.678Z,40.8610
2022-09-24T01:16:40.033Z,40.9390
2022-09-24T01:17:42.219Z,40.8420
2022-09-24T01:18:44.571Z,40.8360
2022-09-24T01:19:46.844Z,40.8610
2022-09-24T01:20:49.162Z,40.8240
2022-09-24T01:21:51.424Z,40.7810
2022-09-24T01:22:53.717Z,40.7940
2022-09-24T01:23:56.027Z,40.7580
2022-09-24T01:24:58.275Z,40.8300
2022-09-24T01:26:00.571Z,40.9300
2022-09-24T01:27:02.830Z,40.9970
2022-09-24T01:28:02.999Z,40.9670
2022-09-24T01:29:05.334Z,40.9270
2022-09-24T01:30:07.606Z,40.8850
2022-09-24T01:31:09.934Z,40.8500
2022-09-24T01:32:12.124Z,40.9240
2022-09-24T01:33:14.420Z,40.9800
2022-09-24T01:34:16.761Z,41.0100
2022-09-24T01:35:16.879Z,41.0550
2022-09-24T01:36:19.180Z,41.1020
2022-09-24T01:37:21.484Z,41.1970
2022-09-24T01:38:23.787Z,41.1680
2022-09-24T01:39:26.110Z,41.1460
2022-09-24T01:40:28.476Z,41.1460
2022-09-24T01:41:30.666Z,41.1580
2022-09-24T01:43:33.140Z,41.2640
2022-09-24T01:44:35.352Z,41.3540
2022-09-24T01:45:37.558Z,41.2620
2022-09-24T01:46:39.868Z,41.3070
2022-09-24T01:47:42.046Z,41.2370
2022-09-24T01:48:44.319Z,41.2790
2022-09-24T01:49:46.605Z,41.2430
2022-09-24T01:50:48.827Z,41.2570
2022-09-24T01:51:51.070Z,41.2680
2022-09-24T01:52:53.289Z,41.2680
2022-09-24T01:53:53.423Z,41.2880
2022-09-24T01:54:55.722Z,41.2520
2022-09-24T01:55:57.946Z,41.2880
2022-09-24T01:57:00.269Z,41.2520
2022-09-24T01:58:02.476Z,41.2360
2022-09-24T01:59:03.624Z,41.2690
2022-09-24T02:00:05.955Z,41.5210
2022-09-24T02:01:07.191Z,41.6180
2022-09-24T02:02:09.566Z,41.4560
2022-09-24T02:03:11.714Z,41.3070
2022-09-24T02:04:11.928Z,41.2520
2022-09-24T02:05:14.127Z,41.2820
2022-09-24T02:06:16.366Z,41.3290
2022-09-24T02:07:18.653Z,41.2690
2022-09-24T02:08:20.916Z,41.2980
2022-09-24T02:09:23.188Z,41.3470
2022-09-24T02:10:25.441Z,41.2880
2022-09-24T02:11:27.641Z,41.2370
2022-09-24T02:12:29.940Z,41.2430
2022-09-24T02:13:32.074Z,41.2490
2022-09-24T02:14:32.153Z,41.2310
2022-09-24T02:15:34.397Z,41.3680
2022-09-24T02:16:36.703Z,41.3030
2022-09-24T02:17:38.889Z,41.2760
2022-09-24T02:18:41.107Z,41.2350
2022-09-24T02:19:43.327Z,41.2400
2022-09-24T02:20:45.563Z,41.1960
2022-09-24T02:21:47.777Z,41.1740
2022-09-24T02:22:50.011Z,41.2620
2022-09-24T02:23:52.254Z,41.2770
2022-09-24T02:24:54.478Z,41.2860
2022-09-24T02:25:54.577Z,41.2640
2022-09-24T02:26:56.822Z,41.3160
2022-09-24T02:27:59.107Z,41.2760
2022-09-24T02:29:01.325Z,41.2150
2022-09-24T02:30:01.465Z,41.3130
2022-09-24T02:31:03.917Z,41.2130
2022-09-24T02:32:06.027Z,41.2530
2022-09-24T02:33:08.314Z,41.2260
2022-09-24T02:34:08.503Z,41.2650
2022-09-24T02:35:10.772Z,41.3140
2022-09-24T02:36:13.110Z,41.2690
2022-09-24T02:37:15.370Z,41.2860
2022-09-24T02:38:17.669Z,41.2160
2022-09-24T02:39:19.973Z,41.2080
2022-09-24T02:40:20.194Z,41.1970
2022-09-24T02:41:22.479Z,41.2250
2022-09-24T02:42:24.733Z,41.2100
2022-09-24T02:43:27.047Z,41.3050
2022-09-24T02:44:29.292Z,41.3170
2022-09-24T02:45:31.596Z,41.2900
2022-09-24T02:46:33.913Z,41.3840
2022-09-24T02:47:36.096Z,41.3170
2022-09-24T02:48:36.258Z,41.2990
2022-09-24T02:49:38.571Z,41.3200
2022-09-24T02:50:40.859Z,41.2900
2022-09-24T02:51:43.203Z,41.2590
2022-09-24T02:52:45.455Z,41.2650
2022-09-24T02:53:47.758Z,41.2770
2022-09-24T02:54:47.900Z,41.2570
2022-09-24T02:55:50.196Z,41.2240
2022-09-24T02:56:52.547Z,41.2650
2022-09-24T02:57:54.782Z,41.2990
2022-09-24T02:58:57.059Z,41.2380
2022-09-24T02:59:59.275Z,41.3740
2022-09-24T03:01:01.532Z,41.3940
2022-09-24T03:02:03.914Z,41.3460
2022-09-24T03:03:05.988Z,41.3220
2022-09-24T03:04:05.960Z,41.2770
2022-09-24T03:05:08.183Z,41.3050
2022-09-24T03:06:10.402Z,41.2680
2022-09-24T03:07:12.683Z,41.3330
2022-09-24T03:08:14.880Z,41.3110
2022-09-24T03:09:17.117Z,41.2740
2022-09-24T03:10:19.357Z,41.2500
2022-09-24T03:11:21.599Z,41.2960
2022-09-24T03:12:23.867Z,41.2570
2022-09-24T03:13:26.079Z,41.2270
2022-09-24T03:14:28.343Z,41.1690
2022-09-24T03:15:28.457Z,41.2270
2022-09-24T03:16:30.696Z,41.2080
2022-09-24T03:17:32.929Z,41.2280
2022-09-24T03:18:35.167Z,41.2660
2022-09-24T03:19:37.393Z,41.2660
2022-09-24T03:20:39.664Z,41.2620
2022-09-24T03:21:41.912Z,41.2390
2022-09-24T03:22:44.213Z,41.2210
2022-09-24T03:23:46.426Z,41.2620
2022-09-24T03:24:48.631Z,41.2720
2022-09-24T03:25:48.734Z,41.2960
2022-09-24T03:26:50.985Z,41.2350
2022-09-24T03:27:53.266Z,41.2780
2022-09-24T03:28:55.442Z,41.2770
2022-09-24T03:29:57.725Z,41.3240
2022-09-24T03:31:00.078Z,41.2960
2022-09-24T03:32:02.119Z,41.2940
2022-09-24T03:33:04.349Z,41.3220
2022-09-24T03:34:06.687Z,41.2730
2022-09-24T03:35:08.776Z,41.3000
2022-09-24T03:36:11.017Z,41.2550
2022-09-24T03:37:11.129Z,41.2390
2022-09-24T03:38:13.353Z,41.2720
2022-09-24T03:39:15.507Z,41.2690
2022-09-24T03:40:17.744Z,41.2750
2022-09-24T03:41:19.896Z,41.2940
2022-09-24T03:42:22.143Z,41.3130
2022-09-24T03:43:24.450Z,41.3000
2022-09-24T03:44:26.670Z,41.2720
2022-09-24T03:45:28.966Z,41.2570
2022-09-24T03:46:31.254Z,41.2290
2022-09-24T03:47:33.431Z,41.2230
2022-09-24T03:48:33.576Z,41.2510
2022-09-24T03:50:27.404Z,41.4300
2022-09-24T03:51:29.574Z,41.3220
2022-09-24T03:52:31.788Z,41.3550
2022-09-24T03:53:33.980Z,41.3710
2022-09-24T03:54:36.223Z,41.3570
2022-09-24T03:55:38.434Z,41.3280
2022-09-24T03:56:40.679Z,41.3610
2022-09-24T03:57:42.968Z,41.3120
2022-09-24T03:58:45.201Z,41.2850
2022-09-24T03:59:45.348Z,41.4160
2022-09-24T04:00:47.619Z,41.3510
2022-09-24T04:01:49.983Z,41.3340
2022-09-24T04:02:52.238Z,41.4120
2022-09-24T04:03:54.412Z,41.3610
2022-09-24T04:04:56.721Z,41.3430
2022-09-24T04:05:58.984Z,41.3790
2022-09-24T04:07:01.249Z,41.3300
2022-09-24T04:08:01.369Z,41.2890
2022-09-24T04:09:03.597Z,41.3830
2022-09-24T04:10:05.913Z,41.3450
2022-09-24T04:11:08.184Z,41.3220
2022-09-24T04:12:10.492Z,41.3940
2022-09-24T04:13:12.780Z,41.3830
2022-09-24T04:14:15.057Z,41.3770
2022-09-24T04:15:15.233Z,41.3710
2022-09-24T04:16:17.605Z,41.4340
2022-09-24T04:17:19.720Z,41.4280
2022-09-24T04:18:21.912Z,41.4510
2022-09-24T04:19:24.159Z,41.4510
2022-09-24T04:20:26.440Z,41.4280
2022-09-24T04:21:28.655Z,41.3830
2022-09-24T04:22:30.916Z,41.4180
2022-09-24T04:23:33.092Z,41.4220
2022-09-24T04:24:35.336Z,41.5300
2022-09-24T04:25:35.470Z,41.4830
2022-09-24T04:26:37.676Z,41.4460
2022-09-24T04:27:39.895Z,41.4120
2022-09-24T04:28:42.125Z,41.4240
2022-09-24T04:29:44.362Z,41.4040
2022-09-24T04:30:46.612Z,41.4280
2022-09-24T04:31:48.844Z,41.4460
2022-09-24T04:32:51.018Z,41.4220
2022-09-24T04:33:53.238Z,41.4400
2022-09-24T04:34:55.419Z,41.5070
2022-09-24T04:35:57.663Z,41.4770
2022-09-24T04:36:59.871Z,41.5140
2022-09-24T04:37:59.989Z,41.5380
2022-09-24T04:39:02.249Z,41.4400
2022-09-24T04:40:04.503Z,41.5350
2022-09-24T04:41:06.803Z,41.4710
2022-09-24T04:42:09.017Z,41.5650
2022-09-24T04:43:11.278Z,41.5800
2022-09-24T04:44:13.534Z,41.5550
2022-09-24T04:45:15.779Z,41.5020
2022-09-24T04:46:18.099Z,41.5080
2022-09-24T04:47:20.397Z,41.4520
2022-09-24T04:48:20.395Z,41.4890
2022-09-24T04:49:22.593Z,41.4280
2022-09-24T04:50:24.875Z,41.4280
2022-09-24T04:51:27.212Z,41.5070
2022-09-24T04:52:29.493Z,41.4890
2022-09-24T04:53:31.798Z,41.5180
2022-09-24T04:54:34.110Z,41.4940
2022-09-24T04:55:36.386Z,41.5280
2022-09-24T04:56:38.710Z,41.5200
2022-09-24T04:57:40.960Z,41.5020
2022-09-24T04:58:43.223Z,41.4820
2022-09-24T04:59:45.479Z,41.5770
2022-09-24T05:00:47.785Z,41.5470
2022-09-24T05:01:48.100Z,41.5470
2022-09-24T05:02:50.391Z,41.5410
2022-09-24T05:03:52.502Z,41.5830
2022-09-24T05:04:54.791Z,41.5160
2022-09-24T05:05:57.081Z,41.5410
2022-09-24T05:06:59.468Z,41.4870
2022-09-24T05:08:01.855Z,41.5160
2022-09-24T05:09:04.873Z,41.5280
2022-09-24T05:10:04.045Z,41.5280
2022-09-24T05:11:06.306Z,41.5770
2022-09-24T05:12:08.609Z,41.5890
2022-09-24T05:13:10.857Z,41.5530
2022-09-24T05:14:13.126Z,41.5750
2022-09-24T05:15:15.402Z,41.5690
2022-09-24T05:16:15.546Z,41.5770
2022-09-24T05:17:17.815Z,41.5480
2022-09-24T05:18:20.070Z,41.5960
2022-09-24T05:19:22.256Z,41.5440
2022-09-24T05:20:24.480Z,41.6870
2022-09-24T05:21:26.731Z,41.5930
2022-09-24T05:22:29.020Z,41.5440
2022-09-24T05:23:31.210Z,41.6160
2022-09-24T05:24:33.460Z,41.6330
2022-09-24T05:25:35.739Z,41.6500
2022-09-24T05:26:35.878Z,41.6540
2022-09-24T05:27:38.210Z,41.9990
2022-09-24T05:28:40.467Z,41.8830
2022-09-24T05:29:42.730Z,41.7780
2022-09-24T05:30:45.024Z,41.8090
2022-09-24T05:31:47.421Z,41.8240
2022-09-24T05:32:47.562Z,41.8420
2022-09-24T05:33:49.852Z,41.8360
2022-09-24T05:34:52.130Z,41.9320
2022-09-24T05:35:54.423Z,42.0260
2022-09-24T05:36:56.694Z,42.0380
2022-09-24T05:37:58.979Z,42.2940
2022-09-24T05:39:01.326Z,41.9950
2022-09-24T05:40:01.260Z,41.9690
2022-09-24T05:41:03.507Z,41.9870
2022-09-24T05:42:05.746Z,42.0690
2022-09-24T05:43:08.027Z,42.3390
2022-09-24T05:44:10.283Z,42.3320
2022-09-24T05:45:12.572Z,42.3210
2022-09-24T05:46:14.946Z,42.2540
2022-09-24T05:47:17.111Z,42.2900
2022-09-24T05:48:19.407Z,42.4950
2022-09-24T05:49:19.509Z,42.4770
2022-09-24T05:50:21.703Z,42.5890
2022-09-24T05:51:23.913Z,42.5950
2022-09-24T05:52:26.032Z,43.0540
2022-09-24T05:53:28.258Z,43.1820
2022-09-24T05:54:30.382Z,43.2990
2022-09-24T05:55:32.931Z,43.4630
2022-09-24T05:56:34.853Z,43.4020
2022-09-24T05:57:37.126Z,43.5020
2022-09-24T05:58:39.425Z,43.4830
2022-09-24T05:59:41.622Z,43.8080
2022-09-24T06:00:43.898Z,43.8300
2022-09-24T06:01:46.256Z,43.9210
2022-09-24T06:02:48.387Z,43.9370
2022-09-24T06:03:50.600Z,43.9270
2022-09-24T06:04:52.816Z,44.0340
2022-09-24T06:05:55.020Z,44.1150
2022-09-24T06:06:57.261Z,44.2810
2022-09-24T06:07:59.507Z,44.1860
2022-09-24T06:09:01.917Z,44.1330
2022-09-24T06:10:03.999Z,44.1570
2022-09-24T06:11:06.223Z,44.3110
2022-09-24T06:12:08.475Z,44.3530
2022-09-24T06:13:08.560Z,44.2870
2022-09-24T06:14:10.829Z,44.2810
2022-09-24T06:15:13.031Z,44.2310
2022-09-24T06:16:15.375Z,44.3110
2022-09-24T06:17:17.598Z,44.3540
2022-09-24T06:18:19.846Z,44.4520
2022-09-24T06:19:22.111Z,44.5480
2022-09-24T06:20:24.393Z,44.4600
2022-09-24T06:21:26.601Z,44.4860
2022-09-24T06:22:29.156Z,44.5140
2022-09-24T06:23:28.942Z,44.5520
2022-09-24T06:24:31.257Z,44.6440
2022-09-24T06:25:33.518Z,44.7050
2022-09-24T06:26:35.802Z,44.6690
2022-09-24T06:27:38.086Z,44.8020
2022-09-24T06:28:40.368Z,44.8050
2022-09-24T06:29:42.701Z,44.8200
2022-09-24T06:30:42.791Z,44.8740
2022-09-24T06:31:45.090Z,44.9650
2022-09-24T06:32:47.345Z,44.9030
2022-09-24T06:33:49.626Z,44.8750
2022-09-24T06:34:56.841Z,44.9130
2022-09-24T06:35:54.195Z,44.9030
2022-09-24T06:36:56.456Z,44.8320
2022-09-24T06:37:56.607Z,44.8850
2022-09-24T06:38:58.883Z,44.8810
2022-09-24T06:40:01.178Z,44.9710
2022-09-24T06:41:03.594Z,44.9370
2022-09-24T06:42:05.721Z,44.9810
2022-09-24T06:43:08.002Z,44.8350
2022-09-24T06:44:10.258Z,44.8020
2022-09-24T06:45:12.567Z,44.8750
2022-09-24T06:46:12.630Z,44.8510
2022-09-24T06:47:14.811Z,44.8170
2022-09-24T06:48:17.040Z,44.8670
2022-09-24T06:49:20.301Z,44.8640
2022-09-24T06:50:21.549Z,44.7030
2022-09-24T06:51:23.711Z,45.2380
2022-09-24T06:52:25.861Z,45.1800
2022-09-24T06:53:28.093Z,44.9440
2022-09-24T06:54:30.324Z,44.8300
2022-09-24T06:55:32.524Z,44.7430
2022-09-24T06:56:34.725Z,44.9150
2022-09-24T06:57:36.932Z,44.7710
2022-09-24T06:58:39.150Z,44.8190
2022-09-24T06:59:41.370Z,44.8970
2022-09-24T07:00:41.504Z,44.9430
2022-09-24T07:01:43.829Z,45.1660
2022-09-24T07:02:45.980Z,45.0270
2022-09-24T07:03:48.254Z,45.1130
2022-09-24T07:04:50.516Z,45.0330
2022-09-24T07:05:52.786Z,45.0270
2022-09-24T07:06:54.991Z,45.0550
2022-09-24T07:07:57.178Z,45.1850
2022-09-24T07:08:59.408Z,44.8410
2022-09-24T07:10:01.637Z,44.8970
2022-09-24T07:11:01.747Z,44.7330
2022-09-24T07:12:03.940Z,44.7550
2022-09-24T07:13:06.179Z,44.8630
2022-09-24T07:14:08.406Z,44.8570
2022-09-24T07:15:10.625Z,44.8410
2022-09-24T07:16:12.927Z,44.8530
2022-09-24T07:17:15.086Z,44.8750
2022-09-24T07:18:17.313Z,44.8790
2022-09-24T07:19:19.497Z,44.8990
2022-09-24T07:20:21.706Z,45.2390
2022-09-24T07:21:23.981Z,44.8190
2022-09-24T07:22:26.163Z,44.7850
2022-09-24T07:23:28.334Z,44.8110
2022-09-24T07:24:28.385Z,44.7270
2022-09-24T07:25:30.579Z,44.9090
2022-09-24T07:26:32.799Z,44.8130
2022-09-24T07:27:34.965Z,44.6810
2022-09-24T07:28:37.214Z,44.8020
2022-09-24T07:29:39.420Z,44.6560
2022-09-24T07:30:41.664Z,44.6080
2022-09-24T07:31:43.968Z,44.6760
2022-09-24T07:32:46.134Z,44.7910
2022-09-24T07:33:48.381Z,44.8850
2022-09-24T07:34:50.609Z,44.8310
2022-09-24T07:35:52.833Z,44.9090
2022-09-24T07:36:55.080Z,45.0510
2022-09-24T07:37:57.299Z,45.0330
2022-09-24T07:38:57.262Z,44.9710
2022-09-24T07:39:59.488Z,44.9650
2022-09-24T07:41:01.756Z,45.0210
2022-09-24T07:42:03.889Z,44.9770
2022-09-24T07:43:06.098Z,45.1910
2022-09-24T07:44:08.333Z,45.2530
2022-09-24T07:45:10.573Z,45.3860
2022-09-24T07:46:12.868Z,45.3550
2022-09-24T07:47:15.725Z,45.3450
2022-09-24T07:48:17.191Z,45.3020
2022-09-24T07:49:19.392Z,45.2610
2022-09-24T07:50:21.610Z,45.2330
2022-09-24T07:51:23.832Z,44.9970
2022-09-24T07:52:26.071Z,44.9370
2022-09-24T07:53:28.367Z,45.0170
2022-09-24T07:54:28.357Z,44.9730
2022-09-24T07:55:30.595Z,45.1230
2022-09-24T07:56:32.862Z,45.0630
2022-09-24T07:57:35.196Z,45.0350
2022-09-24T07:58:37.470Z,45.1410
2022-09-24T07:59:39.776Z,45.1760
2022-09-24T08:00:42.068Z,45.1690
2022-09-24T08:01:42.263Z,45.0610
2022-09-24T08:02:44.544Z,44.9750
2022-09-24T08:03:46.857Z,45.0520
2022-09-24T08:04:49.096Z,45.0170
2022-09-24T08:05:51.372Z,45.0330
2022-09-24T08:06:53.636Z,44.8410
2022-09-24T08:07:55.912Z,44.9270
2022-09-24T08:08:56.072Z,44.9130
2022-09-24T08:09:58.360Z,44.7430
2022-09-24T08:11:00.630Z,44.7970
2022-09-24T08:12:02.922Z,44.6690
2022-09-24T08:13:05.247Z,44.6990
2022-09-24T08:14:07.533Z,44.7830
2022-09-24T08:15:09.767Z,44.7370
2022-09-24T08:16:09.985Z,44.7490
2022-09-24T08:17:12.161Z,44.7670
2022-09-24T08:18:14.437Z,44.6500
2022-09-24T08:19:16.728Z,44.6260
2022-09-24T08:20:19.014Z,44.6560
2022-09-24T08:21:21.276Z,44.5580
2022-09-24T08:22:23.554Z,44.5080
2022-09-24T08:23:23.739Z,44.6650
2022-09-24T08:24:26.007Z,44.4980
2022-09-24T08:25:28.244Z,44.4060
2022-09-24T08:26:30.531Z,44.5400
2022-09-24T08:27:32.778Z,44.4960
2022-09-24T08:28:35.053Z,44.4320
2022-09-24T08:29:37.246Z,44.5140
2022-09-24T08:30:39.488Z,44.5400
2022-09-24T08:31:41.776Z,44.4780
2022-09-24T08:32:43.959Z,44.4000
2022-09-24T08:33:44.052Z,44.6440
2022-09-24T08:34:46.224Z,44.5850
2022-09-24T08:35:48.386Z,44.4120
2022-09-24T08:36:50.585Z,44.4240
2022-09-24T08:37:52.850Z,44.3380
2022-09-24T08:38:55.116Z,44.4160
2022-09-24T08:39:57.350Z,44.3660
2022-09-24T08:40:59.666Z,44.3500
2022-09-24T08:41:59.743Z,44.3380
2022-09-24T08:43:05.508Z,44.4380
2022-09-24T08:44:02.192Z,44.4280
2022-09-24T08:45:04.422Z,44.3840
2022-09-24T08:46:06.781Z,44.3080
2022-09-24T08:47:09.009Z,44.3600
2022-09-24T08:48:11.307Z,44.3940
2022-09-24T08:49:13.627Z,44.2940
2022-09-24T08:50:15.889Z,44.3640
2022-09-24T08:51:16.028Z,44.3360
2022-09-24T08:52:18.318Z,44.3790
2022-09-24T08:53:20.609Z,44.3170
2022-09-24T08:54:22.936Z,44.2590
2022-09-24T08:55:25.184Z,44.4970
2022-09-24T08:56:27.454Z,44.5040
2022-09-24T08:57:29.740Z,44.4180
2022-09-24T08:58:29.859Z,44.3440
2022-09-24T08:59:32.169Z,44.3720
2022-09-24T09:00:34.420Z,44.4240
2022-09-24T09:01:36.743Z,44.3520
2022-09-24T09:02:39.158Z,44.4460
2022-09-24T09:03:41.253Z,44.3200
2022-09-24T09:04:43.699Z,44.3840
2022-09-24T09:05:49.252Z,44.4560
2022-09-24T09:06:45.940Z,44.4800
2022-09-24T09:07:48.209Z,44.5670
2022-09-24T09:09:06.171Z,44.4240
2022-09-24T09:09:52.855Z,44.4680
2022-09-24T09:10:55.216Z,44.3320
2022-09-24T09:11:57.389Z,44.3200
2022-09-24T09:12:59.621Z,44.3680
2022-09-24T09:14:01.877Z,44.2600
2022-09-24T09:15:02.059Z,44.1980
2022-09-24T09:17:04.474Z,44.3940
2022-09-24T09:18:06.617Z,44.3000
2022-09-24T09:19:08.847Z,44.2210
2022-09-24T09:20:11.015Z,44.2640
2022-09-24T09:21:13.211Z,44.2880
2022-09-24T09:22:15.457Z,44.1410
2022-09-24T09:23:19.870Z,44.1910
2022-09-24T09:24:09.273Z,44.2330
2022-09-24T09:25:11.538Z,44.3380
2022-09-24T09:26:13.753Z,44.3260
2022-09-24T09:27:15.999Z,44.2760
2022-09-24T09:28:18.287Z,44.3740
2022-09-24T09:29:20.564Z,44.2760
2022-09-24T09:30:22.875Z,44.3500
2022-09-24T09:31:11.147Z,44.5120
2022-09-24T09:32:12.380Z,44.5260
2022-09-24T09:33:14.655Z,44.4900
2022-09-24T09:34:16.915Z,44.4440
2022-09-24T09:35:19.178Z,44.3500
2022-09-24T09:36:21.424Z,44.3060
2022-09-24T09:37:26.102Z,44.3320
2022-09-24T09:38:25.913Z,44.4060
2022-09-24T09:39:28.189Z,44.4420
2022-09-24T09:40:32.109Z,44.4660
2022-09-24T09:41:31.637Z,44.6080
2022-09-24T09:42:33.851Z,44.8160
2022-09-24T09:43:35.043Z,44.6380
2022-09-24T09:44:37.279Z,44.5460
2022-09-24T09:45:39.545Z,44.4680
2022-09-24T09:46:41.872Z,44.4240
2022-09-24T09:47:44.084Z,44.4120
2022-09-24T09:48:46.345Z,44.3740
2022-09-24T09:49:48.611Z,44.3880
2022-09-24T09:50:50.877Z,44.3380
2022-09-24T09:51:51.026Z,44.3940
2022-09-24T09:52:53.270Z,44.3380
2022-09-24T09:53:55.552Z,44.3500
2022-09-24T09:54:57.824Z,44.3440
2022-09-24T09:56:00.125Z,44.3440
2022-09-24T09:57:02.433Z,44.2520
2022-09-24T09:58:04.614Z,44.3940
2022-09-24T09:59:06.869Z,44.3080
2022-09-24T10:00:07.007Z,44.3620
2022-09-24T10:01:09.271Z,44.3140
2022-09-24T10:02:11.688Z,44.3760
2022-09-24T10:03:13.943Z,44.2940
2022-09-24T10:04:16.053Z,44.3560
2022-09-24T10:05:21.033Z,44.3200
2022-09-24T10:06:20.428Z,44.4120
2022-09-24T10:07:22.701Z,44.2940
2022-09-24T10:08:24.874Z,44.2390
2022-09-24T10:09:27.061Z,44.2390
2022-09-24T10:10:29.278Z,44.2760
2022-09-24T10:11:31.499Z,44.2920
2022-09-24T10:12:31.659Z,44.2330
2022-09-24T10:13:33.798Z,44.3260
2022-09-24T10:14:35.994Z,44.3010
2022-09-24T10:15:43.166Z,44.3000
2022-09-24T10:16:38.288Z,44.2590
2022-09-24T10:17:40.441Z,44.3380
2022-09-24T10:18:42.641Z,44.2330
2022-09-24T10:19:44.865Z,44.3260
2022-09-24T10:20:47.141Z,44.3560
2022-09-24T10:21:49.346Z,44.3320
2022-09-24T10:22:51.644Z,44.2940
2022-09-24T10:23:53.844Z,44.3000
2022-09-24T10:24:56.051Z,44.3200
2022-09-24T10:25:58.257Z,44.3340
2022-09-24T10:27:00.505Z,44.2780
2022-09-24T10:28:02.770Z,44.3280
2022-09-24T10:29:04.966Z,44.2980
2022-09-24T10:30:07.199Z,44.3560
2022-09-24T10:31:09.507Z,44.3260
2022-09-24T10:32:09.548Z,44.3120
2022-09-24T10:33:11.798Z,44.3440
2022-09-24T10:34:13.999Z,44.2360
2022-09-24T10:35:16.205Z,44.4180
2022-09-24T10:36:18.411Z,44.4790
2022-09-24T10:37:20.646Z,44.4200
2022-09-24T10:38:22.918Z,44.3340
2022-09-24T10:39:25.126Z,44.3460
2022-09-24T10:40:27.395Z,44.2840
2022-09-24T10:41:29.576Z,44.2940
2022-09-24T10:42:31.797Z,44.4420
2022-09-24T10:43:34.079Z,44.2520
2022-09-24T10:44:34.122Z,44.3280
2022-09-24T10:45:36.359Z,44.2660
2022-09-24T10:46:38.664Z,44.1810
2022-09-24T10:47:40.813Z,44.1430
2022-09-24T10:48:43.076Z,44.2480
2022-09-24T10:49:45.273Z,44.1370
2022-09-24T10:50:47.511Z,44.1980
2022-09-24T10:51:49.772Z,44.1770
2022-09-24T10:52:51.999Z,44.1870
2022-09-24T10:53:54.243Z,44.2260
2022-09-24T10:54:56.432Z,44.2780
2022-09-24T10:55:56.500Z,44.2760
2022-09-24T10:56:58.786Z,44.4610
2022-09-24T10:58:00.928Z,44.3200
2022-09-24T10:59:03.211Z,44.3400
2022-09-24T11:00:05.379Z,44.3800
2022-09-24T11:01:07.553Z,44.4850
2022-09-24T11:02:09.823Z,44.4330
2022-09-24T11:03:12.060Z,44.5150
2022-09-24T11:04:14.257Z,44.7170
2022-09-24T11:05:16.449Z,44.7660
2022-09-24T11:06:18.687Z,44.8930
2022-09-24T11:07:20.925Z,44.7050
2022-09-24T11:08:23.177Z,44.7810
2022-09-24T11:09:23.312Z,44.6490
2022-09-24T11:10:25.521Z,44.9620
2022-09-24T11:11:27.755Z,44.9140
2022-09-24T11:12:29.976Z,44.7070
2022-09-24T11:13:32.217Z,44.8020
2022-09-24T11:14:34.465Z,44.9160
2022-09-24T11:15:36.707Z,44.8700
2022-09-24T11:16:38.911Z,44.9080
2022-09-24T11:17:41.133Z,45.0440
2022-09-24T11:18:43.362Z,44.9740
2022-09-24T11:19:45.607Z,44.8360
2022-09-24T11:20:47.814Z,45.0840
2022-09-24T11:21:47.940Z,45.2040
2022-09-24T11:22:50.224Z,45.4110
2022-09-24T11:23:50.345Z,45.3990
2022-09-24T11:24:52.671Z,45.3000
2022-09-24T11:25:54.895Z,45.3400
2022-09-24T11:26:57.187Z,45.3240
2022-09-24T11:27:59.476Z,45.2900
2022-09-24T11:28:59.615Z,45.2400
2022-09-24T11:30:01.928Z,45.3300
2022-09-24T11:31:04.212Z,45.3180
2022-09-24T11:32:06.458Z,45.4840
2022-09-24T11:33:08.744Z,45.7330
2022-09-24T11:34:11.110Z,45.8190
2022-09-24T11:35:13.280Z,45.8490
2022-09-24T11:36:15.521Z,45.8810
2022-09-24T11:37:15.656Z,45.9960
2022-09-24T11:38:17.980Z,45.7470
2022-09-24T11:39:20.251Z,46.1050
2022-09-24T11:40:22.651Z,45.9960
2022-09-24T11:41:24.812Z,46.0200
2022-09-24T11:42:27.096Z,46.0070
2022-09-24T11:43:29.378Z,46.1890
2022-09-24T11:44:29.521Z,46.2070
2022-09-24T11:45:31.869Z,46.3770
2022-09-24T11:46:34.140Z,46.3260
2022-09-24T11:47:36.372Z,46.2660
2022-09-24T11:48:38.645Z,46.2380
2022-09-24T11:49:40.927Z,46.1770
2022-09-24T11:50:47.534Z,46.2720
2022-09-24T11:51:43.337Z,46.3620
2022-09-24T11:52:45.618Z,46.3320
2022-09-24T11:53:47.897Z,46.3380
2022-09-24T11:54:49.046Z,45.9890
2022-09-24T11:55:51.304Z,46.4420
2022-09-24T11:56:52.488Z,46.5430
2022-09-24T11:57:54.735Z,46.3910
2022-09-24T11:58:56.926Z,46.3660
2022-09-24T11:59:59.122Z,46.2880
2022-09-24T12:01:01.396Z,45.9090
2022-09-24T12:02:03.638Z,45.9090
2022-09-24T12:03:03.696Z,46.0460
2022-09-24T12:04:05.968Z,46.2370
2022-09-24T12:05:08.150Z,46.0660
2022-09-24T12:06:10.415Z,46.0200
2022-09-24T12:07:12.674Z,46.3140
2022-09-24T12:08:14.925Z,46.2510
2022-09-24T12:09:17.204Z,46.2450
2022-09-24T12:10:19.484Z,46.3880
2022-09-24T12:11:19.659Z,45.7590
2022-09-24T12:12:21.901Z,46.1830
2022-09-24T12:13:24.183Z,45.9210
2022-09-24T12:14:26.415Z,46.0080
2022-09-24T12:15:28.659Z,45.9840
2022-09-24T12:16:30.999Z,46.1890
2022-09-24T12:17:33.147Z,46.0020
2022-09-24T12:18:35.349Z,45.9210
2022-09-24T12:19:37.569Z,46.1080
2022-09-24T12:20:39.780Z,45.9270
2022-09-24T12:21:39.841Z,46.0940
2022-09-24T12:22:42.015Z,46.1450
2022-09-24T12:23:44.224Z,46.2800
2022-09-24T12:24:46.435Z,46.2720
2022-09-24T12:25:48.654Z,46.1730
2022-09-24T12:26:50.880Z,46.3040
2022-09-24T12:27:53.088Z,46.3440
2022-09-24T12:28:55.259Z,46.3600
2022-09-24T12:29:57.421Z,46.4850
2022-09-24T12:30:59.719Z,46.4370
2022-09-24T12:32:01.914Z,46.7680
2022-09-24T12:33:04.070Z,46.5800